createdAt,value
2023-04-29T00:02:02.253Z,35.75
2023-04-29T00:04:30.857Z,37.00
2023-04-29T00:07:00.279Z,26.75
2023-04-29T00:09:28.159Z,33.00
2023-04-29T00:11:58.517Z,28.25
2023-04-29T00:14:28.034Z,30.00
2023-04-29T00:17:03.779Z,29.25
2023-04-29T00:19:32.440Z,22.25
2023-04-29T00:22:05.404Z,27.50
2023-04-29T00:24:32.980Z,38.25
2023-04-29T00:26:59.717Z,36.25
2023-04-29T00:29:28.486Z,36.50
2023-04-29T00:31:55.669Z,28.00
2023-04-29T00:34:25.568Z,27.75
2023-04-29T00:36:53.275Z,30.00
2023-04-29T00:39:22.828Z,36.00
2023-04-29T00:41:53.222Z,28.25
2023-04-29T00:44:21.049Z,29.50
2023-04-29T00:46:48.579Z,22.25
2023-04-29T00:49:17.890Z,24.50
2023-04-29T00:51:44.993Z,29.00
2023-04-29T00:54:12.841Z,26.50
2023-04-29T00:56:42.015Z,28.67
2023-04-29T00:59:14.651Z,19.00
2023-04-29T01:01:44.264Z,24.50
2023-04-29T01:04:12.809Z,29.67
2023-04-29T01:07:02.544Z,27.67
2023-04-29T01:09:38.463Z,29.00
2023-04-29T01:12:23.968Z,26.00
2023-04-29T01:15:07.611Z,28.75
2023-04-29T01:17:39.824Z,24.33
2023-04-29T01:20:07.067Z,27.50
2023-04-29T01:22:33.931Z,26.00
2023-04-29T01:25:02.326Z,29.00
2023-04-29T01:27:52.116Z,26.00
2023-04-29T01:30:21.291Z,24.50
2023-04-29T01:32:53.984Z,30.25
2023-04-29T01:35:41.096Z,30.33
2023-04-29T01:38:10.828Z,30.67
2023-04-29T01:40:59.410Z,24.25
2023-04-29T01:43:29.536Z,28.50
2023-04-29T01:45:57.532Z,35.33
2023-04-29T01:48:25.700Z,28.00
2023-04-29T01:50:52.402Z,29.25
2023-04-29T01:53:19.029Z,24.67
2023-04-29T01:55:46.631Z,29.00
2023-04-29T01:58:13.679Z,26.50
2023-04-29T02:00:40.172Z,27.50
2023-04-29T02:03:08.189Z,29.00
2023-04-29T02:05:37.251Z,27.50
2023-04-29T02:08:04.588Z,24.67
2023-04-29T02:10:32.143Z,24.33
2023-04-29T02:13:00.012Z,24.75
2023-04-29T02:15:28.257Z,25.50
2023-04-29T02:17:55.074Z,29.50
2023-04-29T02:20:23.123Z,25.75
2023-04-29T02:22:52.053Z,26.25
2023-04-29T02:25:20.623Z,24.75
2023-04-29T02:27:47.415Z,29.33
2023-04-29T02:30:14.531Z,30.75
2023-04-29T02:32:44.179Z,24.33
2023-04-29T02:37:52.110Z,28.00
2023-04-29T02:40:26.367Z,22.33
2023-04-29T02:43:06.186Z,26.25
2023-04-29T02:45:35.765Z,22.75
2023-04-29T02:48:10.228Z,29.75
2023-04-29T03:07:49.677Z,23.33
2023-04-29T03:16:09.795Z,22.25
2023-04-29T03:27:49.676Z,38.25
2023-04-29T03:30:16.093Z,24.33
2023-04-29T03:32:42.747Z,28.25
2023-04-29T03:38:42.796Z,23.50
2023-04-29T03:41:09.335Z,22.33
2023-04-29T04:10:34.631Z,27.00
2023-04-29T04:19:49.878Z,22.00
2023-04-29T04:22:25.257Z,22.00
2023-04-29T04:24:55.087Z,20.67
2023-04-29T04:27:21.675Z,19.33
2023-04-29T04:29:48.216Z,17.67
2023-04-29T04:42:50.902Z,25.67
2023-04-29T04:45:17.747Z,23.67
2023-04-29T04:50:32.114Z,26.33
2023-04-29T04:52:58.520Z,24.00
2023-04-29T04:55:25.128Z,25.67
2023-04-29T04:57:51.569Z,23.33
2023-04-29T05:00:18.080Z,30.33
2023-04-29T05:03:07.815Z,47.75
2023-04-29T05:05:37.905Z,29.33
2023-04-29T05:08:11.648Z,72.25
2023-04-29T05:10:40.208Z,43.50
2023-04-29T05:13:22.810Z,75.25
2023-04-29T05:16:01.342Z,33.67
2023-04-29T05:18:35.039Z,32.00
2023-04-29T05:21:10.320Z,61.50
2023-04-29T05:23:37.454Z,45.50
2023-04-29T05:26:04.067Z,82.00
2023-04-29T05:28:30.436Z,30.00
2023-04-29T05:30:59.901Z,53.50
2023-04-29T05:33:26.377Z,32.00
2023-04-29T05:35:53.884Z,26.67
2023-04-29T05:38:20.368Z,151.00
2023-04-29T05:40:46.837Z,44.00
2023-04-29T05:43:13.380Z,48.00
2023-04-29T05:45:39.794Z,28.00
2023-04-29T05:48:06.627Z,61.00
2023-04-29T05:50:35.341Z,27.00
2023-04-29T05:53:02.157Z,37.75
2023-04-29T05:55:28.613Z,60.75
2023-04-29T05:57:54.984Z,25.50
2023-04-29T06:00:21.648Z,22.00
2023-04-29T06:02:58.015Z,23.25
2023-04-29T06:05:25.729Z,36.00
2023-04-29T06:07:52.415Z,25.75
2023-04-29T06:10:19.253Z,30.50
2023-04-29T06:12:47.070Z,22.75
2023-04-29T06:15:13.565Z,24.00
2023-04-29T06:17:40.430Z,21.75
2023-04-29T06:20:07.323Z,24.00
2023-04-29T06:22:33.747Z,26.75
2023-04-29T06:25:00.164Z,48.75
2023-04-29T06:27:26.648Z,22.25
2023-04-29T06:29:53.484Z,21.00
2023-04-29T06:32:20.287Z,16.75
2023-04-29T06:34:47.058Z,27.00
2023-04-29T06:37:13.622Z,87.50
2023-04-29T06:39:40.093Z,56.50
2023-04-29T06:42:06.756Z,52.75
2023-04-29T06:44:33.376Z,118.00
2023-04-29T06:46:59.930Z,25.25
2023-04-29T06:49:26.337Z,21.75
2023-04-29T06:51:52.755Z,23.25
2023-04-29T06:54:19.124Z,27.00
2023-04-29T06:56:45.547Z,25.00
2023-04-29T06:59:12.714Z,49.67
2023-04-29T07:01:42.492Z,20.25
2023-04-29T07:04:10.570Z,31.75
2023-04-29T07:06:37.083Z,30.25
2023-04-29T07:09:03.825Z,61.25
2023-04-29T07:11:30.238Z,21.25
2023-04-29T07:13:56.854Z,25.00
2023-04-29T07:16:26.680Z,28.00
2023-04-29T07:18:53.299Z,28.75
2023-04-29T07:21:19.960Z,30.00
2023-04-29T07:23:46.473Z,23.75
2023-04-29T07:26:13.821Z,22.75
2023-04-29T07:28:40.451Z,34.00
2023-04-29T07:31:07.818Z,38.67
2023-04-29T07:33:34.965Z,21.25
2023-04-29T07:36:01.746Z,32.00
2023-04-29T07:38:29.666Z,21.75
2023-04-29T07:40:56.272Z,24.00
2023-04-29T07:43:22.704Z,21.50
2023-04-29T07:45:49.202Z,25.75
2023-04-29T07:48:15.753Z,32.00
2023-04-29T07:50:43.098Z,22.25
2023-04-29T07:53:10.131Z,28.50
2023-04-29T07:55:37.840Z,31.25
2023-04-29T07:58:04.269Z,25.50
2023-04-29T08:00:31.540Z,28.25
2023-04-29T08:02:58.131Z,35.75
2023-04-29T08:05:25.661Z,41.67
2023-04-29T08:07:52.742Z,36.25
2023-04-29T08:10:19.323Z,24.25
2023-04-29T08:12:46.241Z,20.00
2023-04-29T08:15:12.833Z,25.50
2023-04-29T08:17:39.389Z,32.25
2023-04-29T08:20:07.687Z,29.50
2023-04-29T08:22:34.417Z,29.75
2023-04-29T08:25:01.606Z,25.75
2023-04-29T08:27:28.156Z,21.75
2023-04-29T08:29:56.212Z,21.75
2023-04-29T08:32:22.875Z,25.75
2023-04-29T08:34:49.597Z,24.00
2023-04-29T08:37:18.416Z,24.25
2023-04-29T08:39:47.640Z,23.50
2023-04-29T08:42:14.119Z,22.75
2023-04-29T08:44:41.335Z,29.00
2023-04-29T08:47:08.850Z,26.00
2023-04-29T08:49:38.410Z,52.33
2023-04-29T08:52:05.312Z,81.00
2023-04-29T08:54:32.907Z,37.67
2023-04-29T08:57:00.354Z,67.50
2023-04-29T08:59:28.350Z,18.00
2023-04-29T09:01:55.143Z,20.75
2023-04-29T09:04:38.099Z,23.50
2023-04-29T09:07:06.092Z,22.25
2023-04-29T09:09:33.337Z,27.25
2023-04-29T09:11:59.772Z,20.75
2023-04-29T09:14:26.332Z,19.25
2023-04-29T09:16:52.787Z,20.50
2023-04-29T09:19:29.896Z,22.75
2023-04-29T09:21:57.162Z,21.50
2023-04-29T09:24:25.607Z,22.50
2023-04-29T09:26:52.190Z,17.25
2023-04-29T09:29:18.724Z,17.00
2023-04-29T09:31:45.852Z,15.00
2023-04-29T09:34:12.560Z,18.00
2023-04-29T09:36:45.598Z,18.50
2023-04-29T09:39:19.054Z,29.25
2023-04-29T09:41:54.782Z,14.75
2023-04-29T09:44:24.284Z,16.25
2023-04-29T09:47:03.418Z,15.75
2023-04-29T09:49:29.876Z,14.75
2023-04-29T09:51:59.812Z,17.75
2023-04-29T09:54:30.591Z,18.50
2023-04-29T09:56:58.288Z,16.00
2023-04-29T09:59:24.966Z,13.25
2023-04-29T10:01:52.818Z,13.25
2023-04-29T10:04:19.789Z,20.25
2023-04-29T10:06:48.425Z,14.75
2023-04-29T10:09:18.788Z,13.25
2023-04-29T10:11:45.692Z,11.25
2023-04-29T10:14:31.652Z,19.75
2023-04-29T10:17:01.065Z,12.25
2023-04-29T10:19:35.722Z,23.50
2023-04-29T10:22:07.371Z,13.00
2023-04-29T10:24:35.803Z,15.00
2023-04-29T10:27:03.069Z,17.00
2023-04-29T10:29:30.349Z,13.25
2023-04-29T10:31:57.403Z,37.00
2023-04-29T10:34:24.581Z,26.75
2023-04-29T10:36:51.579Z,33.00
2023-04-29T10:39:24.027Z,21.25
2023-04-29T10:41:51.179Z,13.00
2023-04-29T10:44:17.542Z,17.00
2023-04-29T10:46:44.305Z,13.50
2023-04-29T10:49:10.973Z,13.00
2023-04-29T10:51:42.049Z,19.50
2023-04-29T10:54:08.571Z,13.00
2023-04-29T10:56:38.180Z,17.50
2023-04-29T10:59:04.739Z,13.75
2023-04-29T11:01:41.510Z,19.25
2023-04-29T11:04:09.436Z,21.00
2023-04-29T11:06:35.909Z,16.75
2023-04-29T11:09:28.656Z,21.25
2023-04-29T11:11:55.048Z,18.75
2023-04-29T11:14:23.911Z,19.00
2023-04-29T11:16:54.998Z,17.00
2023-04-29T11:19:23.769Z,16.25
2023-04-29T11:22:03.479Z,16.50
2023-04-29T11:24:29.996Z,18.50
2023-04-29T11:27:00.493Z,17.75
2023-04-29T11:29:28.042Z,17.75
2023-04-29T11:32:01.896Z,20.50
2023-04-29T11:34:28.377Z,16.50
2023-04-29T11:36:54.842Z,19.00
2023-04-29T11:39:21.308Z,22.75
2023-04-29T11:41:51.253Z,17.50
2023-04-29T11:44:22.707Z,18.00
2023-04-29T11:46:49.776Z,21.25
2023-04-29T11:49:16.277Z,20.75
2023-04-29T11:51:42.850Z,19.50
2023-04-29T11:54:09.502Z,19.50
2023-04-29T11:56:37.801Z,17.75
2023-04-29T11:59:08.099Z,22.00
2023-04-29T12:01:35.716Z,25.75
2023-04-29T12:04:02.851Z,18.25
2023-04-29T12:06:30.301Z,23.00
2023-04-29T12:08:58.845Z,21.50
2023-04-29T12:11:26.763Z,19.50
2023-04-29T12:13:53.355Z,25.25
2023-04-29T12:16:20.158Z,15.25
2023-04-29T12:18:46.721Z,24.50
2023-04-29T12:21:13.283Z,23.50
2023-04-29T12:23:41.186Z,19.25
2023-04-29T12:26:08.095Z,28.75
2023-04-29T12:28:34.886Z,18.75
2023-04-29T12:31:01.945Z,18.00
2023-04-29T12:33:29.384Z,15.00
2023-04-29T12:35:57.795Z,17.75
2023-04-29T12:38:27.046Z,25.25
2023-04-29T12:40:54.732Z,14.75
2023-04-29T12:43:25.925Z,19.25
2023-04-29T12:45:54.189Z,19.75
2023-04-29T12:48:26.582Z,16.50
2023-04-29T12:50:58.531Z,12.75
2023-04-29T12:53:25.025Z,17.75
2023-04-29T12:55:52.282Z,13.00
2023-04-29T12:58:18.931Z,22.75
2023-04-29T13:00:45.621Z,13.75
2023-04-29T13:03:12.493Z,15.00
2023-04-29T13:05:39.445Z,13.25
2023-04-29T13:08:06.823Z,12.25
2023-04-29T13:10:33.654Z,11.75
2023-04-29T13:13:00.134Z,12.50
2023-04-29T13:15:27.484Z,19.25
2023-04-29T13:17:54.074Z,25.00
2023-04-29T13:20:20.812Z,9.75
2023-04-29T13:22:47.639Z,15.50
2023-04-29T13:25:16.386Z,22.25
2023-04-29T13:27:44.133Z,17.25
2023-04-29T13:30:11.160Z,15.50
2023-04-29T13:32:44.925Z,17.00
2023-04-29T13:35:15.795Z,22.00
2023-04-29T13:37:42.229Z,24.00
2023-04-29T13:40:08.942Z,14.25
2023-04-29T13:42:44.046Z,14.00
2023-04-29T13:45:16.763Z,14.00
2023-04-29T13:48:02.586Z,12.25
2023-04-29T13:53:33.963Z,15.50
2023-04-29T13:56:15.097Z,17.00
2023-04-29T13:59:04.506Z,19.25
2023-04-29T14:01:55.152Z,12.75
2023-04-29T14:04:06.505Z,13.50
2023-04-29T14:06:34.188Z,18.75
2023-04-29T14:09:03.563Z,12.00
2023-04-29T14:11:30.605Z,15.00
2023-04-29T14:13:57.222Z,16.25
2023-04-29T14:16:23.733Z,20.25
2023-04-29T14:18:50.253Z,18.25
2023-04-29T14:21:16.997Z,14.75
2023-04-29T14:23:43.457Z,21.00
2023-04-29T14:28:39.075Z,17.50
2023-04-29T14:31:05.494Z,14.50
2023-04-29T14:33:31.937Z,14.50
2023-04-29T14:35:58.829Z,14.25
2023-04-29T14:38:25.311Z,15.50
2023-04-29T14:40:52.038Z,24.00
2023-04-29T14:43:18.487Z,16.75
2023-04-29T14:45:45.490Z,17.50
2023-04-29T14:48:12.012Z,31.25
2023-04-29T14:50:38.389Z,22.75
2023-04-29T14:53:05.002Z,33.50
2023-04-29T14:55:31.673Z,32.50
2023-04-29T14:57:58.088Z,15.75
2023-04-29T15:00:24.452Z,16.75
2023-04-29T15:02:51.043Z,15.50
2023-04-29T15:05:18.056Z,21.00
2023-04-29T15:07:44.539Z,16.25
2023-04-29T15:10:11.289Z,16.25
2023-04-29T15:12:37.693Z,13.25
2023-04-29T15:15:08.041Z,20.00
2023-04-29T15:17:34.521Z,25.50
2023-04-29T15:20:01.017Z,35.00
2023-04-29T15:22:27.522Z,17.50
2023-04-29T15:24:53.937Z,18.50
2023-04-29T15:27:21.777Z,14.50
2023-04-29T15:29:48.149Z,18.25
2023-04-29T15:32:14.601Z,14.50
2023-04-29T15:34:41.075Z,15.50
2023-04-29T15:37:07.547Z,19.25
2023-04-29T15:39:34.226Z,15.50
2023-04-29T15:42:00.725Z,16.00
2023-04-29T15:44:27.347Z,18.33
2023-04-29T15:46:53.720Z,21.00
2023-04-29T15:49:20.366Z,15.25
2023-04-29T15:51:47.432Z,22.25
2023-04-29T15:54:13.807Z,17.75
2023-04-29T15:56:40.344Z,27.00
2023-04-29T15:59:07.006Z,46.67
2023-04-29T16:01:35.108Z,37.00
2023-04-29T16:04:03.313Z,40.67
2023-04-29T16:06:29.930Z,44.67
2023-04-29T16:08:56.727Z,35.00
2023-04-29T16:11:23.425Z,36.00
2023-04-29T16:13:49.825Z,34.50
2023-04-29T16:16:16.710Z,32.50
2023-04-29T16:18:43.984Z,29.75
2023-04-29T16:21:10.711Z,33.25
2023-04-29T16:23:37.297Z,27.25
2023-04-29T16:26:03.904Z,38.75
2023-04-29T16:28:30.530Z,32.00
2023-04-29T16:30:57.091Z,41.67
2023-04-29T16:33:23.658Z,47.00
2023-04-29T16:35:50.238Z,40.67
2023-04-29T16:38:17.280Z,40.33
2023-04-29T16:40:43.857Z,32.75
2023-04-29T16:43:14.419Z,34.50
2023-04-29T16:45:41.530Z,30.75
2023-04-29T16:48:08.481Z,46.67
2023-04-29T16:50:38.460Z,37.25
2023-04-29T16:53:05.137Z,40.67
2023-04-29T16:55:32.215Z,52.75
2023-04-29T16:57:58.810Z,44.67
2023-04-29T17:00:25.457Z,42.00
2023-04-29T17:02:53.023Z,48.67
2023-04-29T17:05:19.834Z,41.00
2023-04-29T17:07:46.400Z,48.67
2023-04-29T17:10:12.871Z,40.00
2023-04-29T17:12:39.481Z,38.67
2023-04-29T17:15:06.282Z,27.25
2023-04-29T17:17:32.770Z,33.00
2023-04-29T17:20:00.177Z,45.67
2023-04-29T17:22:27.112Z,50.00
2023-04-29T17:24:53.707Z,46.00
2023-04-29T17:27:20.808Z,65.75
2023-04-29T17:29:47.160Z,67.50
2023-04-29T17:32:17.375Z,91.25
2023-04-29T17:34:43.958Z,85.75
2023-04-29T17:37:10.611Z,86.50
2023-04-29T17:39:37.220Z,71.75
2023-04-29T17:42:04.107Z,82.25
2023-04-29T17:44:30.709Z,73.25
2023-04-29T17:46:57.316Z,69.00
2023-04-29T17:49:23.830Z,67.75
2023-04-29T17:51:50.332Z,60.50
2023-04-29T17:54:17.042Z,49.00
2023-04-29T17:56:43.650Z,55.75
2023-04-29T17:59:11.233Z,52.75
2023-04-29T18:01:37.936Z,53.00
2023-04-29T18:04:06.249Z,48.00
2023-04-29T18:06:32.944Z,53.67
2023-04-29T18:08:59.514Z,52.75
2023-04-29T18:11:26.193Z,53.50
2023-04-29T18:13:53.489Z,40.00
2023-04-29T18:16:20.194Z,36.00
2023-04-29T18:18:46.964Z,38.50
2023-04-29T18:21:13.603Z,41.67
2023-04-29T18:23:40.929Z,52.00
2023-04-29T18:26:08.503Z,49.67
2023-04-29T18:28:35.221Z,47.25
2023-04-29T18:31:01.772Z,39.33
2023-04-29T18:33:30.951Z,54.25
2023-04-29T18:35:57.582Z,45.00
2023-04-29T18:38:24.182Z,50.75
2023-04-29T18:40:50.889Z,71.25
2023-04-29T18:43:18.306Z,67.00
2023-04-29T18:45:45.997Z,64.75
2023-04-29T18:48:13.104Z,63.00
2023-04-29T18:50:40.375Z,68.50
2023-04-29T18:53:07.120Z,76.75
2023-04-29T18:55:33.713Z,69.50
2023-04-29T18:58:00.479Z,70.25
2023-04-29T19:00:27.345Z,77.75
2023-04-29T19:02:53.770Z,78.00
2023-04-29T19:05:21.247Z,82.75
2023-04-29T19:07:47.741Z,95.75
2023-04-29T19:10:14.189Z,86.75
2023-04-29T19:12:40.623Z,81.50
2023-04-29T19:15:08.344Z,84.50
2023-04-29T19:17:34.817Z,84.00
2023-04-29T19:20:01.364Z,74.25
2023-04-29T19:22:28.573Z,76.50
2023-04-29T19:24:55.893Z,75.75
2023-04-29T19:27:22.398Z,72.50
2023-04-29T19:29:48.793Z,69.00
2023-04-29T19:32:15.223Z,78.25
2023-04-29T19:34:41.666Z,76.50
2023-04-29T19:37:08.781Z,82.00
2023-04-29T19:39:35.175Z,83.75
2023-04-29T19:42:04.111Z,76.50
2023-04-29T19:44:30.941Z,78.25
2023-04-29T19:46:57.970Z,92.00
2023-04-29T19:49:24.588Z,74.75
2023-04-29T19:51:52.124Z,70.00
2023-04-29T19:54:18.563Z,71.00
2023-04-29T19:56:44.969Z,72.00
2023-04-29T19:59:13.369Z,73.50
2023-04-29T20:01:40.220Z,56.25
2023-04-29T20:04:06.664Z,54.25
2023-04-29T20:06:35.264Z,58.00
2023-04-29T20:09:01.801Z,62.00
2023-04-29T20:11:28.248Z,55.75
2023-04-29T20:13:54.676Z,53.50
2023-04-29T20:16:23.658Z,53.50
2023-04-29T20:18:50.113Z,46.25
2023-04-29T20:21:16.551Z,47.75
2023-04-29T20:23:42.985Z,51.00
2023-04-29T20:26:09.449Z,51.00
2023-04-29T20:28:36.202Z,48.75
2023-04-29T20:31:02.639Z,47.00
2023-04-29T20:33:29.251Z,47.00
2023-04-29T20:35:57.480Z,47.67
2023-04-29T20:38:27.742Z,42.33
2023-04-29T20:40:54.640Z,30.00
2023-04-29T20:43:21.083Z,26.67
2023-04-29T20:45:47.902Z,35.67
2023-04-29T20:51:08.897Z,34.25
2023-04-29T20:53:35.477Z,32.00
2023-04-29T20:59:12.124Z,35.50
2023-04-29T21:10:32.028Z,27.67
2023-04-29T21:12:58.533Z,34.33
2023-04-29T21:18:11.270Z,38.33
